Bo Guaniquilla, Puerto Rico
Current Conditions -  °F | °C
As of 4:50 AM on Thursday 23 Oct 2014 (Local Time) from TJBQ Reporting Station
Clear Clear  
Wind Chill: 73°   Ceiling: Unl
Heat Index: 73°   Visibility: 10mi
Dew Point: 72°   Wind: 5mph
Humidity: 94%   Direction: 140°SE
Pressure: 29.92"   Gusts: NA
Location:  18.3974°N, 67.1679°W
Report Text: TJBQ 230850Z 14004KT 10SM SKC 23/22 A2992 RMK RWY 08- ATIS Z
Loading
Personal Weather Stations






























Interactive Weather Map
Tropical Storm Tracking
New forecast layout! Learn more

10-Day Weather Forecast

Advertisements
Track Severe Weather on mobile